createdAt,value
2022-10-05T00:01:30.134Z,23.30
2022-10-05T00:04:01.204Z,22.40
2022-10-05T00:06:33.134Z,20.80
2022-10-05T00:09:12.368Z,22.38
2022-10-05T00:11:41.106Z,20.35
2022-10-05T00:14:17.126Z,23.67
2022-10-05T00:16:47.473Z,16.10
2022-10-05T00:19:21.234Z,19.77
2022-10-05T00:21:49.873Z,16.02
2022-10-05T00:24:21.173Z,16.48
2022-10-05T00:26:55.375Z,21.17
2022-10-05T00:29:28.880Z,22.17
2022-10-05T00:32:00.481Z,17.35
2022-10-05T00:34:29.269Z,20.23
2022-10-05T00:36:57.944Z,17.25
2022-10-05T00:39:26.976Z,16.98
2022-10-05T00:42:05.878Z,17.85
2022-10-05T00:44:38.949Z,15.52
2022-10-05T00:47:22.449Z,19.38
2022-10-05T00:50:15.619Z,15.60
2022-10-05T00:52:51.059Z,19.08
2022-10-05T00:55:29.207Z,17.42
2022-10-05T00:58:06.942Z,20.52
2022-10-05T01:00:40.480Z,19.02
2022-10-05T01:03:15.741Z,21.10
2022-10-05T01:05:52.725Z,20.75
2022-10-05T01:08:29.295Z,13.40
2022-10-05T01:11:05.250Z,18.52
2022-10-05T01:13:39.413Z,15.43
2022-10-05T01:16:12.304Z,16.67
2022-10-05T01:18:47.893Z,17.25
2022-10-05T01:21:19.712Z,15.93
2022-10-05T01:24:21.630Z,16.77
2022-10-05T01:27:17.950Z,14.65
2022-10-05T01:29:52.293Z,17.58
2022-10-05T01:32:26.135Z,21.10
2022-10-05T01:35:00.754Z,18.25
2022-10-05T01:37:32.735Z,14.82
2022-10-05T01:40:07.026Z,15.77
2022-10-05T01:42:45.915Z,17.55
2022-10-05T01:45:20.384Z,15.52
2022-10-05T01:47:52.699Z,13.75
2022-10-05T01:50:28.329Z,12.35
2022-10-05T01:53:07.401Z,13.27
2022-10-05T01:55:41.643Z,19.58
2022-10-05T01:58:17.247Z,14.88
2022-10-05T02:00:52.735Z,14.77
2022-10-05T02:03:26.317Z,18.20
2022-10-05T02:05:58.406Z,14.02
2022-10-05T02:08:32.197Z,14.23
2022-10-05T02:11:03.664Z,16.08
2022-10-05T02:13:37.021Z,16.95
2022-10-05T02:16:10.684Z,16.40
2022-10-05T02:18:42.788Z,14.25
2022-10-05T02:21:11.774Z,15.25
2022-10-05T02:23:43.137Z,20.08
2022-10-05T02:26:13.451Z,19.95
2022-10-05T02:28:45.776Z,13.52
2022-10-05T02:31:18.467Z,15.68
2022-10-05T02:33:49.851Z,16.33
2022-10-05T02:36:25.441Z,15.27
2022-10-05T02:39:02.827Z,22.00
2022-10-05T02:41:41.488Z,15.07
2022-10-05T02:44:19.030Z,15.50
2022-10-05T02:46:57.173Z,17.30
2022-10-05T02:49:33.264Z,18.60
2022-10-05T02:52:09.159Z,20.63
2022-10-05T02:54:45.100Z,21.40
2022-10-05T02:57:18.490Z,26.08
2022-10-05T02:59:52.718Z,14.38
2022-10-05T03:02:25.978Z,22.13
2022-10-05T03:05:00.748Z,23.20
2022-10-05T03:07:32.988Z,22.85
2022-10-05T03:10:07.970Z,19.60
2022-10-05T03:12:46.561Z,16.83
2022-10-05T03:15:24.596Z,21.30
2022-10-05T03:18:02.770Z,21.90
2022-10-05T03:20:36.283Z,18.50
2022-10-05T03:23:06.310Z,22.30
2022-10-05T03:25:48.265Z,26.60
2022-10-05T03:28:22.786Z,19.60
2022-10-05T03:30:57.550Z,18.95
2022-10-05T03:33:34.179Z,23.83
2022-10-05T03:36:08.070Z,18.13
2022-10-05T03:38:50.231Z,20.65
2022-10-05T03:41:22.976Z,23.13
2022-10-05T03:44:03.698Z,19.75
2022-10-05T03:46:42.000Z,17.83
2022-10-05T03:49:18.169Z,20.35
2022-10-05T03:51:48.620Z,17.38
2022-10-05T03:54:22.224Z,22.10
2022-10-05T03:56:54.268Z,22.85
2022-10-05T03:59:32.262Z,23.50
2022-10-05T04:02:03.130Z,21.70
2022-10-05T04:04:36.471Z,18.85
2022-10-05T04:07:09.720Z,18.02
2022-10-05T04:09:42.945Z,17.52
2022-10-05T04:12:16.633Z,16.58
2022-10-05T04:14:48.312Z,17.50
2022-10-05T04:17:19.829Z,20.50
2022-10-05T04:19:54.234Z,15.57
2022-10-05T04:22:24.800Z,20.23
2022-10-05T04:24:57.858Z,24.58
2022-10-05T04:27:32.983Z,15.75
2022-10-05T04:30:05.479Z,20.95
2022-10-05T04:32:39.094Z,21.48
2022-10-05T04:35:29.064Z,21.88
2022-10-05T04:38:04.244Z,16.92
2022-10-05T04:40:48.585Z,17.40
2022-10-05T04:43:21.670Z,18.13
2022-10-05T04:46:07.155Z,16.98
2022-10-05T04:48:57.653Z,18.60
2022-10-05T04:51:36.927Z,19.87
2022-10-05T04:54:13.453Z,15.10
2022-10-05T04:56:47.089Z,13.25
2022-10-05T04:59:29.941Z,19.63
2022-10-05T05:02:06.906Z,24.13
2022-10-05T05:05:02.781Z,23.52
2022-10-05T05:07:42.501Z,19.95
2022-10-05T05:10:53.382Z,23.55
2022-10-05T05:13:35.567Z,20.73
2022-10-05T05:16:09.041Z,20.88
2022-10-05T05:18:54.705Z,21.25
2022-10-05T05:21:34.523Z,15.75
2022-10-05T05:24:12.855Z,18.77
2022-10-05T05:26:56.359Z,20.63
2022-10-05T05:29:38.627Z,17.45
2022-10-05T05:32:11.154Z,19.67
2022-10-05T05:34:49.296Z,17.67
2022-10-05T05:37:24.078Z,18.45
2022-10-05T05:39:59.254Z,17.67
2022-10-05T05:42:33.505Z,17.08
2022-10-05T05:45:09.105Z,16.98
2022-10-05T05:47:40.620Z,20.58
2022-10-05T05:50:24.458Z,20.13
2022-10-05T05:52:57.171Z,18.50
2022-10-05T05:55:30.752Z,15.10
2022-10-05T05:58:05.295Z,20.73
2022-10-05T06:00:38.058Z,16.35
2022-10-05T06:03:12.522Z,17.40
2022-10-05T06:05:45.330Z,16.95
2022-10-05T06:08:19.954Z,16.95
2022-10-05T06:10:55.547Z,19.40
2022-10-05T06:13:28.241Z,21.50
2022-10-05T06:15:59.221Z,18.88
2022-10-05T06:18:28.734Z,16.27
2022-10-05T06:21:01.917Z,24.25
2022-10-05T06:23:38.832Z,20.17
2022-10-05T06:26:19.434Z,22.60
2022-10-05T06:28:51.261Z,18.17
2022-10-05T06:31:29.837Z,15.25
2022-10-05T06:34:07.598Z,16.35
2022-10-05T06:36:42.162Z,16.10
2022-10-05T06:39:24.190Z,14.38
2022-10-05T06:42:13.785Z,21.75
2022-10-05T06:45:09.135Z,23.10
2022-10-05T06:47:52.711Z,17.50
2022-10-05T06:50:55.178Z,14.13
2022-10-05T06:53:45.031Z,20.08
2022-10-05T06:56:27.107Z,17.35
2022-10-05T06:59:01.164Z,20.65
2022-10-05T07:01:38.714Z,19.55
2022-10-05T07:04:23.622Z,16.08
2022-10-05T07:06:55.232Z,15.45
2022-10-05T07:09:32.630Z,18.52
2022-10-05T07:12:16.874Z,18.30
2022-10-05T07:14:57.901Z,16.95
2022-10-05T07:17:38.050Z,13.93
2022-10-05T07:20:17.249Z,16.80
2022-10-05T07:22:56.877Z,11.70
2022-10-05T07:25:30.745Z,14.97
2022-10-05T07:28:04.359Z,12.45
2022-10-05T07:30:40.399Z,16.45
2022-10-05T07:33:14.770Z,15.55
2022-10-05T07:36:06.970Z,13.38
2022-10-05T07:38:39.498Z,12.60
2022-10-05T07:41:10.793Z,16.10
2022-10-05T07:44:01.542Z,13.20
2022-10-05T07:46:42.853Z,20.25
2022-10-05T07:49:18.301Z,14.85
2022-10-05T07:51:49.896Z,11.40
2022-10-05T07:54:23.433Z,12.55
2022-10-05T07:56:57.213Z,10.20
2022-10-05T07:59:31.836Z,12.77
2022-10-05T08:02:08.635Z,12.27
2022-10-05T08:04:45.977Z,13.15
2022-10-05T08:07:17.750Z,12.77
2022-10-05T08:09:52.310Z,15.35
2022-10-05T08:12:26.972Z,7.97
2022-10-05T08:14:59.032Z,13.05
2022-10-05T08:17:35.965Z,16.40
2022-10-05T08:20:18.330Z,7.55
2022-10-05T08:22:49.198Z,8.57
2022-10-05T08:25:22.542Z,12.23
2022-10-05T08:27:54.451Z,10.13
2022-10-05T08:30:23.154Z,9.35
2022-10-05T08:32:57.979Z,12.07
2022-10-05T08:35:29.969Z,11.00
2022-10-05T08:37:58.503Z,9.68
2022-10-05T08:40:46.467Z,7.50
2022-10-05T08:43:42.555Z,7.47
2022-10-05T08:46:23.226Z,9.48
2022-10-05T08:49:34.247Z,10.35
2022-10-05T08:52:26.243Z,7.25
2022-10-05T08:55:24.755Z,7.47
2022-10-05T08:58:31.393Z,12.40
2022-10-05T09:01:08.262Z,9.45
2022-10-05T09:04:03.786Z,8.55
2022-10-05T09:06:53.059Z,7.32
2022-10-05T09:09:56.255Z,9.18
2022-10-05T09:12:44.728Z,8.35
2022-10-05T09:15:31.416Z,11.43
2022-10-05T09:18:49.911Z,12.95
2022-10-05T09:21:28.301Z,7.05
2022-10-05T09:24:08.121Z,9.80
2022-10-05T09:26:44.888Z,10.75
2022-10-05T09:29:36.416Z,6.60
2022-10-05T09:32:23.922Z,9.48
2022-10-05T09:35:11.097Z,9.27
2022-10-05T09:38:05.136Z,8.35
2022-10-05T09:41:06.242Z,11.10
2022-10-05T09:44:06.082Z,9.30
2022-10-05T09:46:53.482Z,7.05
2022-10-05T09:49:50.830Z,9.65
2022-10-05T09:52:32.033Z,6.50
2022-10-05T09:55:40.419Z,9.75
2022-10-05T09:58:41.520Z,11.88
2022-10-05T10:01:33.228Z,7.88
2022-10-05T10:04:29.845Z,6.65
2022-10-05T10:07:20.752Z,10.60
2022-10-05T10:10:05.963Z,9.85
2022-10-05T10:12:38.787Z,8.05
2022-10-05T10:15:34.181Z,13.90
2022-10-05T10:18:20.547Z,7.57
2022-10-05T10:21:04.383Z,9.27
2022-10-05T10:23:55.304Z,9.65
2022-10-05T10:26:50.617Z,9.35
2022-10-05T10:29:42.131Z,9.45
2022-10-05T10:32:46.133Z,9.23
2022-10-05T10:35:23.600Z,7.47
2022-10-05T10:38:33.487Z,8.00
2022-10-05T10:41:45.786Z,5.45
2022-10-05T10:44:55.653Z,7.30
2022-10-05T10:47:37.319Z,4.22
2022-10-05T10:50:42.788Z,7.30
2022-10-05T10:53:33.484Z,7.45
2022-10-05T10:56:26.348Z,7.55
2022-10-05T10:59:36.634Z,7.72
2022-10-05T11:02:20.100Z,6.57
2022-10-05T11:05:05.210Z,7.32
2022-10-05T11:07:55.820Z,7.60
2022-10-05T11:10:38.734Z,9.32
2022-10-05T11:13:42.052Z,9.75
2022-10-05T11:16:44.095Z,7.22
2022-10-05T11:19:40.419Z,3.90
2022-10-05T11:22:32.678Z,5.40
2022-10-05T11:25:18.767Z,6.55
2022-10-05T11:28:05.629Z,5.22
2022-10-05T11:31:06.372Z,7.47
2022-10-05T11:34:03.327Z,5.10
2022-10-05T11:36:58.552Z,6.68
2022-10-05T11:39:43.982Z,6.97
2022-10-05T11:42:37.315Z,10.93
2022-10-05T11:45:22.934Z,5.63
2022-10-05T11:48:27.241Z,10.27
2022-10-05T11:51:30.110Z,4.65
2022-10-05T11:54:09.476Z,12.50
2022-10-05T11:56:41.032Z,10.75
2022-10-05T11:59:15.604Z,7.22
2022-10-05T12:01:52.492Z,7.28
2022-10-05T12:04:29.011Z,9.18
2022-10-05T12:07:06.096Z,6.03
2022-10-05T12:10:20.322Z,9.80
2022-10-05T12:12:59.356Z,7.97
2022-10-05T12:15:31.891Z,8.90
2022-10-05T12:18:08.398Z,10.32
2022-10-05T12:20:41.454Z,13.20
2022-10-05T12:23:16.210Z,10.35
2022-10-05T12:25:47.323Z,7.85
2022-10-05T12:28:21.231Z,7.97
2022-10-05T12:31:17.015Z,9.23
2022-10-05T12:33:53.574Z,9.13
2022-10-05T12:36:31.921Z,9.52
2022-10-05T12:39:16.884Z,7.65
2022-10-05T12:41:49.832Z,10.70
2022-10-05T12:44:25.606Z,10.18
2022-10-05T12:47:00.106Z,11.25
2022-10-05T12:49:45.553Z,8.77
2022-10-05T12:52:26.015Z,7.05
2022-10-05T12:55:01.187Z,12.27
2022-10-05T12:57:35.344Z,10.40
2022-10-05T13:00:07.103Z,7.85
2022-10-05T13:02:42.445Z,9.85
2022-10-05T13:05:23.934Z,8.52
2022-10-05T13:08:07.774Z,9.02
2022-10-05T13:10:39.634Z,12.05
2022-10-05T13:13:24.720Z,13.73
2022-10-05T13:15:58.068Z,13.05
2022-10-05T13:18:31.265Z,17.50
2022-10-05T13:21:05.573Z,6.60
2022-10-05T13:23:43.805Z,7.10
2022-10-05T13:26:15.403Z,9.27
2022-10-05T13:28:48.627Z,10.95
2022-10-05T13:31:22.426Z,11.32
2022-10-05T13:34:04.814Z,5.70
2022-10-05T13:36:43.028Z,11.45
2022-10-05T13:39:22.738Z,12.15
2022-10-05T13:41:55.737Z,9.63
2022-10-05T13:44:30.566Z,9.93
2022-10-05T13:47:02.306Z,9.10
2022-10-05T13:49:38.798Z,11.35
2022-10-05T13:52:20.430Z,16.08
2022-10-05T13:54:52.547Z,5.55
2022-10-05T13:57:30.578Z,9.95
2022-10-05T14:00:00.715Z,12.18
2022-10-05T14:02:31.854Z,8.07
2022-10-05T14:05:02.330Z,7.50
2022-10-05T14:07:38.875Z,7.80
2022-10-05T14:10:12.958Z,8.32
2022-10-05T14:12:43.589Z,9.82
2022-10-05T14:15:22.313Z,11.50
2022-10-05T14:17:52.856Z,13.15
2022-10-05T14:20:24.993Z,8.50
2022-10-05T14:22:57.756Z,12.20
2022-10-05T14:25:27.078Z,8.32
2022-10-05T14:28:02.057Z,7.82
2022-10-05T14:30:31.967Z,8.57
2022-10-05T14:33:17.194Z,7.32
2022-10-05T14:35:49.284Z,15.43
2022-10-05T14:38:22.662Z,15.52
2022-10-05T14:41:04.988Z,13.00
2022-10-05T14:43:34.276Z,10.48
2022-10-05T14:46:05.586Z,8.93
2022-10-05T14:48:43.349Z,9.52
2022-10-05T14:51:13.330Z,14.60
2022-10-05T14:53:46.085Z,11.25
2022-10-05T14:56:26.826Z,16.95
2022-10-05T15:01:50.146Z,11.80
2022-10-05T15:04:29.528Z,9.52
2022-10-05T15:07:07.225Z,11.27
2022-10-05T15:09:46.576Z,22.15
2022-10-05T15:12:19.357Z,7.25
2022-10-05T15:14:48.479Z,7.28
2022-10-05T15:17:20.174Z,7.57
2022-10-05T15:19:57.176Z,12.00
2022-10-05T15:22:31.824Z,6.95
2022-10-05T15:25:12.920Z,12.88
2022-10-05T15:27:51.592Z,13.95
2022-10-05T15:30:20.479Z,6.68
2022-10-05T15:33:09.592Z,12.05
2022-10-05T15:35:55.933Z,9.57
2022-10-05T15:38:26.640Z,15.75
2022-10-05T15:43:38.425Z,12.73
2022-10-05T15:46:14.158Z,15.80
2022-10-05T15:48:49.734Z,10.15
2022-10-05T15:51:29.459Z,10.90
2022-10-05T15:54:16.961Z,14.27
2022-10-05T15:56:51.516Z,11.60
2022-10-05T15:59:28.235Z,9.43
2022-10-05T16:02:01.597Z,11.48
2022-10-05T16:04:38.406Z,13.90
2022-10-05T16:07:31.898Z,9.75
2022-10-05T16:10:05.520Z,11.73
2022-10-05T16:12:43.940Z,15.77
2022-10-05T16:15:26.548Z,12.50
2022-10-05T16:18:36.375Z,7.63
2022-10-05T16:21:14.176Z,9.40
2022-10-05T16:23:53.384Z,12.80
2022-10-05T16:26:32.779Z,8.65
2022-10-05T16:29:06.865Z,11.93
2022-10-05T16:31:40.578Z,12.80
2022-10-05T16:34:18.526Z,12.90
2022-10-05T16:36:56.018Z,15.50
2022-10-05T16:39:49.301Z,10.18
2022-10-05T16:42:36.007Z,11.13
2022-10-05T16:45:45.076Z,17.00
2022-10-05T16:48:22.182Z,10.65
2022-10-05T16:51:00.132Z,13.73
2022-10-05T16:53:32.662Z,12.15
2022-10-05T16:56:03.446Z,13.25
2022-10-05T17:01:12.211Z,15.85
2022-10-05T17:03:51.341Z,11.20
2022-10-05T17:06:38.536Z,14.90
2022-10-05T17:09:22.758Z,12.13
2022-10-05T17:12:04.890Z,15.20
2022-10-05T17:14:42.038Z,10.82
2022-10-05T17:17:30.278Z,11.23
2022-10-05T17:20:21.341Z,10.77
2022-10-05T17:22:52.440Z,11.65
2022-10-05T17:25:26.430Z,12.65
2022-10-05T17:27:56.779Z,8.73
2022-10-05T17:33:20.532Z,14.45
2022-10-05T17:35:55.197Z,13.75
2022-10-05T17:38:24.660Z,11.73
2022-10-05T17:41:17.002Z,13.75
2022-10-05T17:44:24.934Z,9.23
2022-10-05T17:46:56.172Z,9.50
2022-10-05T17:50:11.024Z,12.77
2022-10-05T17:53:01.858Z,12.68
2022-10-05T17:55:48.893Z,11.18
2022-10-05T17:59:03.021Z,10.55
2022-10-05T18:01:33.977Z,8.02
2022-10-05T18:04:33.779Z,10.43
2022-10-05T18:07:07.476Z,7.05
2022-10-05T18:09:56.516Z,9.40
2022-10-05T18:12:44.216Z,7.72
2022-10-05T18:15:21.414Z,9.52
2022-10-05T18:17:51.505Z,9.13
2022-10-05T18:20:29.639Z,8.02
2022-10-05T18:23:35.729Z,10.57
2022-10-05T18:26:15.989Z,10.75
2022-10-05T18:28:54.273Z,20.02
2022-10-05T18:31:31.612Z,19.88
2022-10-05T18:34:18.035Z,11.20
2022-10-05T18:36:59.240Z,8.63
2022-10-05T18:39:39.701Z,8.48
2022-10-05T18:42:14.741Z,8.55
2022-10-05T18:44:46.640Z,14.18
2022-10-05T18:47:19.969Z,6.80
2022-10-05T18:50:11.584Z,8.55
2022-10-05T18:52:51.952Z,8.18
2022-10-05T18:55:27.035Z,8.85
2022-10-05T18:58:05.670Z,11.27
2022-10-05T19:01:01.061Z,8.18
2022-10-05T19:03:35.252Z,9.98
2022-10-05T19:06:13.435Z,13.13
2022-10-05T19:08:50.928Z,9.43
2022-10-05T19:11:25.660Z,12.45
2022-10-05T19:14:02.115Z,12.93
2022-10-05T19:16:52.614Z,8.38
2022-10-05T19:19:48.758Z,9.50
2022-10-05T19:22:25.023Z,9.70
2022-10-05T19:25:06.744Z,9.48
2022-10-05T19:27:44.699Z,10.40
2022-10-05T19:30:19.571Z,17.15
2022-10-05T19:33:04.989Z,9.75
2022-10-05T19:35:41.134Z,7.32
2022-10-05T19:38:24.618Z,10.50
2022-10-05T19:40:58.015Z,9.45
2022-10-05T19:43:53.565Z,12.45
2022-10-05T19:46:30.941Z,7.57
2022-10-05T19:49:00.311Z,7.72
2022-10-05T19:51:31.403Z,8.93
2022-10-05T19:54:03.059Z,10.00
2022-10-05T19:56:34.761Z,9.50
2022-10-05T19:59:14.354Z,9.48
2022-10-05T20:01:49.197Z,12.60
2022-10-05T20:04:33.025Z,8.07
2022-10-05T20:07:02.498Z,10.45
2022-10-05T20:09:31.735Z,15.00
2022-10-05T20:12:01.055Z,11.23
2022-10-05T20:14:58.559Z,7.75
2022-10-05T20:17:45.890Z,12.27
2022-10-05T20:20:33.276Z,10.70
2022-10-05T20:23:20.192Z,7.63
2022-10-05T20:26:09.957Z,10.63
2022-10-05T20:28:39.004Z,11.80
2022-10-05T20:31:09.554Z,10.07
2022-10-05T20:33:40.348Z,14.40
2022-10-05T20:36:09.163Z,10.07
2022-10-05T20:38:41.035Z,13.82
2022-10-05T20:41:10.571Z,14.18
2022-10-05T20:43:39.548Z,9.07
2022-10-05T20:46:09.764Z,13.25
2022-10-05T20:51:07.875Z,12.48
2022-10-05T20:53:36.671Z,12.05
2022-10-05T20:56:06.163Z,12.88
2022-10-05T20:58:34.564Z,12.98
2022-10-05T21:01:19.877Z,11.60
2022-10-05T21:03:50.789Z,12.40
2022-10-05T21:06:21.133Z,8.60
2022-10-05T21:11:19.969Z,9.57
2022-10-05T21:13:49.422Z,15.27
2022-10-05T21:16:20.137Z,13.10
2022-10-05T21:18:50.604Z,15.38
2022-10-05T21:23:48.984Z,13.20
2022-10-05T21:26:18.097Z,14.77
2022-10-05T21:28:46.911Z,10.93
2022-10-05T21:31:16.032Z,11.88
2022-10-05T21:33:44.818Z,15.63
2022-10-05T21:36:18.351Z,12.32
2022-10-05T21:38:48.979Z,10.10
2022-10-05T21:41:18.187Z,13.60
2022-10-05T21:43:47.761Z,12.88
2022-10-05T21:46:19.990Z,13.90
2022-10-05T21:48:49.745Z,16.90
2022-10-05T21:51:20.574Z,10.53
2022-10-05T21:53:54.777Z,13.05
2022-10-05T21:56:25.614Z,10.90
2022-10-05T21:58:54.220Z,13.40
2022-10-05T22:01:23.271Z,12.45
2022-10-05T22:03:52.959Z,16.48
2022-10-05T22:06:23.991Z,13.53
2022-10-05T22:08:52.739Z,10.77
2022-10-05T22:11:21.519Z,12.23
2022-10-05T22:13:51.708Z,16.55
2022-10-05T22:16:22.373Z,11.80
2022-10-05T22:18:53.669Z,10.85
2022-10-05T22:21:23.735Z,10.57
2022-10-05T22:23:52.569Z,14.15
2022-10-05T22:26:22.787Z,8.38
2022-10-05T22:28:55.229Z,11.93
2022-10-05T22:31:24.220Z,13.57
2022-10-05T22:33:53.117Z,15.50
2022-10-05T22:36:23.799Z,15.18
2022-10-05T22:38:52.484Z,14.25
2022-10-05T22:41:21.118Z,13.65
2022-10-05T22:43:50.921Z,14.85
2022-10-05T22:46:20.360Z,15.50
2022-10-05T22:48:49.261Z,14.77
2022-10-05T22:51:18.100Z,15.02
2022-10-05T22:53:48.265Z,13.00
2022-10-05T22:56:16.916Z,12.00
2022-10-05T22:58:45.601Z,10.32
2022-10-05T23:01:16.310Z,14.77
2022-10-05T23:03:45.511Z,15.40
2022-10-05T23:06:16.088Z,12.25
2022-10-05T23:08:46.065Z,13.32
2022-10-05T23:11:19.015Z,13.40
2022-10-05T23:13:47.499Z,12.73
2022-10-05T23:16:17.713Z,10.13
2022-10-05T23:18:48.714Z,15.90
2022-10-05T23:21:19.596Z,13.38
2022-10-05T23:23:51.154Z,14.07
2022-10-05T23:26:22.628Z,8.90
2022-10-05T23:28:51.077Z,13.70
2022-10-05T23:31:21.378Z,10.90
2022-10-05T23:33:50.225Z,12.23
2022-10-05T23:36:21.641Z,12.60
2022-10-05T23:39:14.650Z,13.30
2022-10-05T23:42:11.636Z,14.52
2022-10-05T23:45:11.195Z,14.93
2022-10-05T23:48:08.798Z,10.77
2022-10-05T23:51:03.657Z,9.18
2022-10-05T23:54:01.904Z,10.48
2022-10-05T23:57:00.144Z,11.55
2022-10-05T23:59:56.382Z,13.48
